Time;durP1;ratioP1;P1;durP2;ratioP2;P2;SDS_P1;SDS_P2;PMS_P1;PMS_P2;Temp;Humidity;BMP_temperature;BMP_pressure;BME280_temperature;BME280_humidity;BME280_pressure;Samples;Min_cycle;Max_cycle;Signal;HPM_P1;HPM_P2
2022/05/14 00:00:10;;;;;;;3.80;1.85;;;15.30;96.20;;;;;;5114220;27;20065;-76
2022/05/14 00:02:37;;;;;;;8.65;1.85;;;15.30;96.30;;;;;;5112729;27;20070;-76
2022/05/14 00:05:03;;;;;;;3.53;1.48;;;15.30;96.30;;;;;;5113763;27;20043;-76
2022/05/14 00:07:29;;;;;;;6.63;1.75;;;15.30;96.30;;;;;;5131106;27;20051;-76
2022/05/14 00:09:58;;;;;;;7.57;2.20;;;15.20;96.40;;;;;;5127012;27;20046;-76
2022/05/14 00:15:11;;;;;;;4.72;1.83;;;15.20;96.40;;;;;;5136308;27;20504;-76
2022/05/14 00:17:46;;;;;;;4.68;2.45;;;15.20;96.50;;;;;;5133604;27;20830;-76
2022/05/14 00:20:14;;;;;;;6.70;1.80;;;14.60;96.40;;;;;;5132319;27;20031;-76
2022/05/14 00:22:40;;;;;;;2.03;1.33;;;15.10;96.50;;;;;;5129715;27;20070;-76
2022/05/14 00:25:07;;;;;;;6.70;2.83;;;15.10;96.60;;;;;;5107313;27;20047;-76
2022/05/14 00:27:51;;;;;;;4.28;2.10;;;15.10;96.90;;;;;;5113346;27;20043;-76
2022/05/14 00:30:23;;;;;;;5.90;2.17;;;15.10;96.70;;;;;;5123632;27;20043;-76
2022/05/14 00:32:50;;;;;;;8.68;2.45;;;15.10;96.70;;;;;;5123131;27;20070;-76
2022/05/14 00:35:17;;;;;;;4.38;1.92;;;15.00;96.60;;;;;;5114333;27;20083;-76
2022/05/14 00:37:44;;;;;;;3.50;2.00;;;14.90;96.60;;;;;;5132335;27;20044;-76
2022/05/14 00:40:21;;;;;;;5.97;1.90;;;15.00;96.70;;;;;;5111956;27;20454;-76
2022/05/14 00:42:47;;;;;;;7.13;2.40;;;15.00;96.70;;;;;;5125834;27;20047;-75
2022/05/14 00:45:16;;;;;;;3.50;1.83;;;15.00;96.80;;;;;;5117224;27;20046;-76
2022/05/14 00:47:49;;;;;;;2.90;1.65;;;15.00;96.80;;;;;;5111575;27;20683;-76
2022/05/14 00:50:22;;;;;;;3.90;1.58;;;14.90;96.90;;;;;;5103037;27;20043;-76
2022/05/14 00:52:49;;;;;;;4.05;2.08;;;14.90;96.90;;;;;;5114753;27;20142;-76
2022/05/14 00:55:17;;;;;;;11.48;1.85;;;14.80;96.90;;;;;;5106205;27;20048;-76
2022/05/14 00:57:46;;;;;;;4.70;1.52;;;14.80;96.90;;;;;;5113217;27;20810;-76
2022/05/14 01:00:21;;;;;;;2.72;1.88;;;14.80;97.00;;;;;;5113489;27;20063;-76
2022/05/14 01:02:47;;;;;;;2.80;2.03;;;14.70;97.00;;;;;;5102073;27;20700;-75
2022/05/14 01:05:14;;;;;;;6.53;4.20;;;14.70;97.10;;;;;;5123360;27;20113;-75
2022/05/14 01:07:41;;;;;;;2.35;1.70;;;14.70;97.10;;;;;;5108291;27;20042;-76
2022/05/14 01:10:12;;;;;;;2.35;1.52;;;14.70;97.10;;;;;;5110273;27;21198;-76
2022/05/14 01:12:45;;;;;;;6.85;1.95;;;14.70;97.10;;;;;;5102899;27;20565;-76
2022/05/14 01:15:18;;;;;;;3.67;1.58;;;14.70;97.20;;;;;;5108857;27;20044;-76
2022/05/14 01:17:45;;;;;;;4.60;1.77;;;14.70;97.20;;;;;;5111336;27;20040;-76
2022/05/14 01:20:12;;;;;;;5.68;2.00;;;14.70;97.20;;;;;;5111400;27;20032;-76
2022/05/14 01:23:08;;;;;;;4.00;1.77;;;14.70;97.30;;;;;;5110976;27;20051;-77
2022/05/14 01:28:40;;;;;;;2.53;1.55;;;14.60;97.30;;;;;;5110876;27;20056;-76
2022/05/14 01:31:10;;;;;;;2.70;1.63;;;14.60;97.30;;;;;;5108642;27;20414;-76
2022/05/14 01:33:36;;;;;;;5.53;2.00;;;14.60;97.30;;;;;;5110230;27;20527;-75
2022/05/14 01:36:06;;;;;;;2.75;1.70;;;14.60;97.40;;;;;;5106843;27;20063;-76
2022/05/14 01:38:33;;;;;;;4.97;1.85;;;14.60;97.30;;;;;;5108708;27;20134;-75
2022/05/14 01:40:59;;;;;;;4.22;2.08;;;14.60;97.40;;;;;;5108203;27;20036;-75
2022/05/14 01:43:25;;;;;;;3.58;1.95;;;14.60;97.40;;;;;;5125064;27;20094;-75
2022/05/14 01:45:59;;;;;;;6.38;1.75;;;14.60;97.40;;;;;;5129832;27;20123;-76
2022/05/14 01:48:31;;;;;;;4.55;1.55;;;14.50;97.50;;;;;;5127757;27;20046;-75
2022/05/14 01:50:56;;;;;;;;;;;14.30;97.50;;;;;;5132990;27;20544;-75
2022/05/14 01:53:22;;;;;;;4.45;1.90;;;14.50;97.50;;;;;;5129612;27;19945;-75
2022/05/14 01:55:48;;;;;;;3.78;2.03;;;14.50;97.60;;;;;;5129628;27;20731;-76
2022/05/14 02:01:05;;;;;;;3.63;1.80;;;14.40;97.60;;;;;;5134847;27;20073;-75
2022/05/14 02:03:31;;;;;;;;;;;14.50;97.60;;;;;;5116571;27;20077;-76
2022/05/14 02:05:57;;;;;;;5.50;1.70;;;14.40;97.60;;;;;;5115576;27;19954;-75
2022/05/14 02:08:25;;;;;;;3.63;1.55;;;14.40;97.60;;;;;;5125402;27;20185;-75
2022/05/14 02:10:53;;;;;;;5.63;1.85;;;14.40;97.60;;;;;;5115498;27;20036;-75
2022/05/14 02:13:21;;;;;;;4.63;2.10;;;14.30;97.60;;;;;;5108194;27;20052;-75
2022/05/14 02:15:47;;;;;;;3.88;1.88;;;14.40;97.70;;;;;;5130459;27;20040;-75
2022/05/14 02:18:15;;;;;;;5.18;2.05;;;14.40;97.70;;;;;;5134021;27;20796;-75
2022/05/14 02:20:45;;;;;;;4.85;2.13;;;14.30;97.70;;;;;;5134095;27;20046;-76
2022/05/14 02:23:13;;;;;;;4.75;1.92;;;14.30;97.70;;;;;;5125931;27;20797;-76
2022/05/14 02:25:41;;;;;;;3.92;1.98;;;14.30;97.70;;;;;;5112625;27;20074;-75
2022/05/14 02:28:11;;;;;;;4.43;2.17;;;14.20;97.70;;;;;;5113547;27;20054;-75
2022/05/14 02:30:37;;;;;;;7.15;1.95;;;14.20;97.80;;;;;;5128720;27;20174;-76
2022/05/14 02:33:06;;;;;;;7.63;2.95;;;14.30;97.80;;;;;;5132992;27;20047;-76
2022/05/14 02:35:32;;;;;;;3.17;1.90;;;14.20;97.80;;;;;;5123085;27;20043;-76
2022/05/14 02:37:59;;;;;;;6.43;2.05;;;14.20;97.90;;;;;;5133372;27;20532;-76
2022/05/14 02:40:25;;;;;;;5.00;2.28;;;14.20;97.90;;;;;;5136144;27;20043;-76
2022/05/14 02:42:52;;;;;;;4.25;2.38;;;14.50;98.00;;;;;;5137649;27;20122;-76
2022/05/14 02:45:21;;;;;;;5.70;2.03;;;14.20;98.00;;;;;;5135015;27;20126;-76
2022/05/14 02:47:53;;;;;;;5.25;2.47;;;14.10;97.90;;;;;;5116430;27;20448;-76
2022/05/14 02:50:20;;;;;;;;;;;14.50;98.10;;;;;;5137285;27;20035;-76
2022/05/14 02:52:54;;;;;;;4.18;1.80;;;14.10;98.00;;;;;;5134553;27;19927;-76
2022/05/14 02:55:20;;;;;;;6.35;2.00;;;14.10;98.00;;;;;;5113155;27;20043;-76
2022/05/14 02:57:46;;;;;;;4.28;1.60;;;14.10;98.00;;;;;;5133284;27;20046;-76
2022/05/14 03:00:18;;;;;;;5.72;2.08;;;13.80;98.00;;;;;;5133365;27;20409;-76
2022/05/14 03:02:44;;;;;;;5.88;2.42;;;14.10;98.10;;;;;;5114873;27;20291;-76
2022/05/14 03:05:14;;;;;;;1.88;1.48;;;14.10;98.10;;;;;;5133578;27;20051;-76
2022/05/14 03:07:50;;;;;;;5.88;1.77;;;14.10;98.10;;;;;;5130742;27;20046;-77
2022/05/14 03:10:21;;;;;;;4.95;2.28;;;14.00;98.10;;;;;;5134310;27;20043;-76
2022/05/14 03:12:47;;;;;;;3.30;1.73;;;14.10;98.20;;;;;;5132889;27;20035;-76
2022/05/14 03:15:13;;;;;;;3.53;1.80;;;14.10;98.20;;;;;;5133815;27;20047;-76
2022/05/14 03:17:42;;;;;;;5.03;1.65;;;14.00;98.20;;;;;;5116089;27;20039;-76
2022/05/14 03:20:11;;;;;;;4.43;3.28;;;14.00;98.20;;;;;;5127850;27;20583;-76
2022/05/14 03:22:39;;;;;;;3.55;1.90;;;14.00;98.20;;;;;;5131227;27;20112;-76
2022/05/14 03:25:06;;;;;;;5.63;2.47;;;14.00;98.30;;;;;;5114739;27;20808;-76
2022/05/14 03:27:32;;;;;;;4.88;1.80;;;14.00;98.30;;;;;;5132966;27;20043;-76
2022/05/14 03:30:00;;;;;;;6.28;2.53;;;14.00;98.40;;;;;;5133286;27;20039;-77
2022/05/14 03:32:27;;;;;;;8.50;2.30;;;13.90;98.40;;;;;;5133324;27;20448;-76
2022/05/14 03:34:58;;;;;;;3.78;2.20;;;14.20;98.50;;;;;;5131540;27;21146;-76
2022/05/14 03:37:24;;;;;;;3.90;1.85;;;13.90;98.40;;;;;;5113118;27;20885;-76
2022/05/14 03:39:50;;;;;;;6.68;2.10;;;13.90;98.40;;;;;;5136025;27;20070;-76
2022/05/14 03:42:16;;;;;;;3.92;2.28;;;13.90;98.40;;;;;;5135496;27;20559;-76
2022/05/14 03:44:46;;;;;;;7.93;2.10;;;13.90;98.50;;;;;;5134308;27;20047;-76
2022/05/14 03:47:12;;;;;;;3.88;2.67;;;13.90;98.50;;;;;;5106026;27;20085;-76
2022/05/14 03:49:40;;;;;;;4.28;2.58;;;13.90;98.50;;;;;;5133981;27;20501;-76
2022/05/14 03:52:07;;;;;;;6.00;2.53;;;13.90;98.50;;;;;;5115799;27;20078;-75
2022/05/14 03:54:34;;;;;;;3.72;1.73;;;13.50;98.40;;;;;;5113338;27;20956;-76
2022/05/14 03:57:03;;;;;;;4.90;2.03;;;14.00;98.80;;;;;;5124706;27;20047;-76
2022/05/14 03:59:34;;;;;;;6.85;2.58;;;13.90;98.60;;;;;;5112552;27;20338;-76
2022/05/14 04:02:04;;;;;;;7.65;2.40;;;13.80;98.60;;;;;;5132114;27;20043;-75
2022/05/14 04:04:30;;;;;;;5.60;1.98;;;13.80;98.60;;;;;;5113031;27;20593;-76
2022/05/14 04:06:57;;;;;;;2.60;1.90;;;13.80;98.90;;;;;;5133679;27;20050;-76
2022/05/14 04:09:26;;;;;;;5.75;2.50;;;13.80;98.70;;;;;;5109971;27;20520;-75
2022/05/14 04:11:52;;;;;;;14.65;2.60;;;13.80;98.70;;;;;;5130413;27;20036;-75
2022/05/14 04:14:19;;;;;;;4.03;2.13;;;13.80;98.70;;;;;;5131429;27;20490;-75
2022/05/14 04:16:45;;;;;;;8.02;2.53;;;13.80;98.70;;;;;;5107900;27;20240;-76
2022/05/14 04:19:16;;;;;;;4.50;2.28;;;13.80;98.80;;;;;;5132345;27;20171;-75
2022/05/14 04:21:42;;;;;;;6.93;2.05;;;13.80;98.80;;;;;;5132209;27;20534;-75
2022/05/14 04:24:10;;;;;;;5.93;1.75;;;13.70;98.80;;;;;;5129098;27;20083;-75
2022/05/14 04:26:38;;;;;;;5.68;2.92;;;13.70;98.80;;;;;;5091093;27;20043;-75
2022/05/14 04:29:06;;;;;;;4.93;2.15;;;13.70;98.90;;;;;;5133477;27;20103;-76
2022/05/14 04:31:35;;;;;;;4.47;2.38;;;13.70;98.90;;;;;;5130855;27;20039;-75
2022/05/14 04:34:01;;;;;;;6.38;2.47;;;13.80;98.90;;;;;;5117530;27;20043;-75
2022/05/14 04:36:27;;;;;;;5.15;2.65;;;13.70;98.90;;;;;;5129926;27;20054;-76
2022/05/14 04:38:56;;;;;;;7.70;2.33;;;13.80;99.00;;;;;;5135331;27;20054;-75
2022/05/14 04:41:24;;;;;;;3.40;2.03;;;13.60;98.90;;;;;;5124229;27;20049;-76
2022/05/14 04:43:50;;;;;;;4.72;1.70;;;13.70;98.90;;;;;;5120924;27;20059;-76
2022/05/14 04:46:18;;;;;;;4.80;2.28;;;13.70;99.00;;;;;;5101779;27;20090;-76
2022/05/14 04:48:44;;;;;;;3.92;1.90;;;13.70;99.00;;;;;;5107951;27;20657;-77
2022/05/14 04:51:10;;;;;;;3.72;3.05;;;13.80;99.00;;;;;;5114289;27;20031;-75
2022/05/14 04:53:39;;;;;;;6.47;2.33;;;13.70;98.90;;;;;;5114994;27;20102;-76
2022/05/14 04:56:07;;;;;;;3.85;2.83;;;13.70;99.00;;;;;;5116725;27;20143;-76
2022/05/14 04:58:33;;;;;;;3.58;2.28;;;13.70;99.10;;;;;;5108706;27;20040;-76
2022/05/14 05:00:59;;;;;;;5.22;1.92;;;13.70;99.00;;;;;;5120513;27;20040;-76
2022/05/14 05:03:28;;;;;;;3.92;1.90;;;13.70;99.00;;;;;;5113050;27;22132;-75
2022/05/14 05:05:58;;;;;;;3.33;1.95;;;13.00;98.80;;;;;;5108398;27;20044;-76
2022/05/14 05:08:27;;;;;;;9.02;3.03;;;13.70;99.00;;;;;;5113351;27;20043;-76
2022/05/14 05:10:53;;;;;;;4.82;2.33;;;13.50;99.00;;;;;;5114009;27;20162;-76
2022/05/14 05:13:25;;;;;;;3.80;2.05;;;13.60;99.00;;;;;;5110132;27;20533;-76
2022/05/14 05:15:52;;;;;;;6.00;2.20;;;13.70;99.10;;;;;;5111744;27;20039;-76
2022/05/14 05:18:19;;;;;;;8.48;2.33;;;13.70;99.10;;;;;;5112726;27;20036;-76
2022/05/14 05:20:49;;;;;;;5.97;2.05;;;13.70;99.10;;;;;;5112832;27;20055;-75
2022/05/14 05:23:22;;;;;;;4.88;1.95;;;13.70;99.10;;;;;;5110196;27;20624;-75
2022/05/14 05:25:49;;;;;;;3.13;1.77;;;13.70;99.20;;;;;;5111608;27;20044;-75
2022/05/14 05:28:15;;;;;;;6.90;2.15;;;13.70;99.20;;;;;;5112426;27;20043;-75
2022/05/14 05:30:41;;;;;;;5.53;2.53;;;13.80;99.30;;;;;;5110757;27;20051;-75
2022/05/14 05:33:16;;;;;;;2.78;1.67;;;13.80;99.30;;;;;;5110922;27;20047;-75
2022/05/14 05:35:50;;;;;;;3.47;1.90;;;13.80;99.30;;;;;;5111724;27;20074;-75
2022/05/14 05:38:17;;;;;;;4.00;2.50;;;13.80;99.30;;;;;;5112080;27;20069;-76
2022/05/14 05:40:46;;;;;;;5.28;1.77;;;13.90;99.40;;;;;;5102455;27;20157;-76
2022/05/14 05:43:14;;;;;;;6.07;2.05;;;13.80;99.40;;;;;;5127517;27;20050;-76
2022/05/14 05:45:48;;;;;;;3.75;2.00;;;13.90;99.40;;;;;;5108928;27;20044;-76
2022/05/14 05:48:17;;;;;;;4.70;2.13;;;13.90;99.40;;;;;;5109508;27;20129;-76
2022/05/14 05:50:48;;;;;;;6.07;2.10;;;14.10;99.50;;;;;;5103275;27;20044;-75
2022/05/14 05:53:16;;;;;;;7.53;2.60;;;14.00;99.40;;;;;;5112190;27;20063;-77
2022/05/14 05:58:37;;;;;;;6.55;1.92;;;14.00;99.40;;;;;;5076177;27;20114;-75
2022/05/14 06:01:03;;;;;;;6.95;2.13;;;14.00;99.40;;;;;;5107179;27;20048;-75
2022/05/14 06:03:29;;;;;;;4.63;2.10;;;14.00;99.50;;;;;;5112153;27;20044;-76
2022/05/14 06:05:55;;;;;;;3.80;1.83;;;14.00;99.50;;;;;;5106743;27;20048;-76
2022/05/14 06:08:21;;;;;;;4.20;2.08;;;14.00;99.60;;;;;;5110524;27;20778;-76
2022/05/14 06:11:08;;;;;;;3.42;1.88;;;14.00;99.60;;;;;;5112210;27;20130;-78
2022/05/14 06:13:40;;;;;;;8.80;2.15;;;14.00;99.60;;;;;;5104574;27;20101;-80
2022/05/14 06:16:06;;;;;;;4.32;1.80;;;14.10;99.70;;;;;;5107439;27;20058;-76
2022/05/14 06:18:32;;;;;;;5.30;2.10;;;14.10;99.70;;;;;;5107986;27;20498;-75
2022/05/14 06:20:58;;;;;;;6.35;2.55;;;14.10;99.80;;;;;;5112222;27;20417;-75
2022/05/14 06:23:24;;;;;;;5.82;2.15;;;14.20;99.80;;;;;;5110013;27;20540;-75
2022/05/14 06:25:50;;;;;;;2.67;1.58;;;14.20;99.90;;;;;;5110665;27;20040;-76
2022/05/14 06:28:16;;;;;;;4.63;2.28;;;14.30;99.90;;;;;;5113002;27;20044;-75
2022/05/14 06:30:43;;;;;;;2.22;1.80;;;14.30;99.90;;;;;;5110846;27;20040;-75
2022/05/14 06:33:10;;;;;;;5.28;1.92;;;14.30;99.90;;;;;;5120477;27;20128;-75
2022/05/14 06:35:37;;;;;;;5.18;1.98;;;14.40;99.90;;;;;;5108215;27;20070;-74
2022/05/14 06:38:04;;;;;;;5.88;2.03;;;14.40;99.90;;;;;;5111135;27;20048;-74
2022/05/14 06:40:30;;;;;;;6.28;2.30;;;14.40;99.90;;;;;;5111845;27;20119;-74
2022/05/14 06:42:57;;;;;;;3.45;2.22;;;14.50;99.90;;;;;;5121158;27;20504;-74
2022/05/14 06:45:24;;;;;;;4.20;2.63;;;14.50;99.90;;;;;;5132325;27;20039;-73
2022/05/14 06:47:50;;;;;;;7.90;2.65;;;14.60;99.90;;;;;;5113931;27;20093;-74
2022/05/14 06:50:18;;;;;;;4.32;2.28;;;14.60;99.90;;;;;;5134753;27;20112;-74
2022/05/14 06:52:50;;;;;;;4.68;2.00;;;14.60;99.90;;;;;;5132608;27;20232;-74
2022/05/14 06:55:21;;;;;;;4.80;1.85;;;14.60;99.90;;;;;;5133141;27;20133;-74
2022/05/14 06:57:48;;;;;;;4.28;3.25;;;14.60;99.90;;;;;;5136159;27;20046;-73
2022/05/14 07:00:14;;;;;;;4.90;1.73;;;14.70;99.90;;;;;;5111919;27;20035;-73
2022/05/14 07:02:45;;;;;;;5.22;2.22;;;14.70;99.90;;;;;;5134109;27;20059;-75
2022/05/14 07:07:56;;;;;;;3.60;2.03;;;14.80;99.90;;;;;;5133928;27;20047;-74
2022/05/14 07:10:21;;;;;;;5.50;2.72;;;14.80;99.90;;;;;;5134722;27;20524;-73
2022/05/14 07:12:47;;;;;;;4.85;2.05;;;14.80;99.90;;;;;;5135700;27;20043;-73
2022/05/14 07:15:13;;;;;;;4.35;3.15;;;14.80;99.90;;;;;;5136522;27;20794;-73
2022/05/14 07:17:39;;;;;;;4.72;1.90;;;14.90;99.90;;;;;;5136297;27;20043;-73
2022/05/14 07:20:06;;;;;;;4.18;2.03;;;15.00;99.90;;;;;;5137078;27;20922;-73
2022/05/14 07:22:32;;;;;;;5.82;2.10;;;15.00;99.90;;;;;;5114925;27;20050;-73
2022/05/14 07:24:58;;;;;;;7.22;1.98;;;15.10;99.90;;;;;;5114862;27;20040;-73
2022/05/14 07:27:24;;;;;;;6.40;1.80;;;15.10;99.90;;;;;;5107107;27;20043;-74
2022/05/14 07:29:52;;;;;;;4.43;2.47;;;15.10;99.90;;;;;;5114768;27;20168;-79
2022/05/14 07:32:20;;;;;;;3.08;1.90;;;15.20;99.90;;;;;;5114180;27;20097;-73
2022/05/14 07:34:46;;;;;;;7.20;1.77;;;15.20;99.90;;;;;;5110071;27;20071;-74
2022/05/14 07:37:33;;;;;;;6.45;1.60;;;15.20;99.90;;;;;;5116743;27;20066;-79
2022/05/14 07:40:05;;;;;;;3.72;2.22;;;15.30;99.90;;;;;;5133614;27;20100;-74
2022/05/14 07:42:50;;;;;;;9.85;2.50;;;15.30;99.90;;;;;;5132660;27;20043;-74
2022/05/14 07:45:21;;;;;;;5.40;1.70;;;15.40;99.90;;;;;;5132928;27;20567;-74
2022/05/14 07:47:48;;;;;;;2.42;1.38;;;15.40;99.90;;;;;;5108439;27;20122;-74
2022/05/14 07:50:17;;;;;;;1.67;1.17;;;15.50;99.90;;;;;;5133580;27;20046;-73
2022/05/14 07:52:43;;;;;;;2.97;1.83;;;15.50;99.90;;;;;;5125113;27;20043;-74
2022/05/14 07:55:10;;;;;;;3.67;1.65;;;15.50;99.90;;;;;;5112640;27;21291;-74
2022/05/14 07:57:36;;;;;;;3.53;1.60;;;15.60;99.90;;;;;;5132580;27;20035;-73
2022/05/14 08:00:06;;;;;;;3.90;1.70;;;15.60;99.90;;;;;;5125880;27;20092;-74
2022/05/14 08:02:34;;;;;;;5.18;2.03;;;15.70;99.90;;;;;;5113444;27;20051;-74
2022/05/14 08:05:09;;;;;;;3.20;1.58;;;15.70;99.90;;;;;;5131556;27;20045;-74
2022/05/14 08:07:36;;;;;;;4.35;1.52;;;15.80;99.90;;;;;;5114502;27;20114;-74
2022/05/14 08:10:05;;;;;;;2.78;1.70;;;15.80;99.90;;;;;;5132296;27;20168;-75
2022/05/14 08:12:38;;;;;;;3.70;1.60;;;15.80;99.90;;;;;;5133735;27;20539;-75
2022/05/14 08:15:06;;;;;;;3.00;1.77;;;15.90;99.90;;;;;;5116856;27;20043;-75
2022/05/14 08:17:32;;;;;;;8.25;1.95;;;16.00;99.90;;;;;;5115484;27;20126;-75
2022/05/14 08:19:58;;;;;;;2.88;1.48;;;16.00;99.90;;;;;;5127239;27;20391;-75
2022/05/14 08:25:27;;;;;;;2.55;1.45;;;16.40;99.90;;;;;;5125433;27;20047;-75
2022/05/14 08:27:54;;;;;;;4.20;2.05;;;16.10;99.90;;;;;;5113922;27;20108;-73
2022/05/14 08:30:23;;;;;;;2.15;1.63;;;16.10;99.90;;;;;;5130993;27;20050;-74
2022/05/14 08:32:49;;;;;;;3.53;1.80;;;16.00;99.90;;;;;;5131414;27;20046;-74
2022/05/14 08:35:16;;;;;;;4.30;1.75;;;16.20;99.90;;;;;;5131221;27;20058;-73
2022/05/14 08:37:46;;;;;;;8.73;1.63;;;16.20;99.90;;;;;;5132272;27;20131;-74
2022/05/14 08:40:20;;;;;;;3.08;1.20;;;16.20;99.90;;;;;;5129284;27;20032;-74
2022/05/14 08:43:02;;;;;;;2.70;1.40;;;16.30;99.90;;;;;;5134272;27;20615;-74
2022/05/14 08:45:33;;;;;;;2.00;1.60;;;16.30;99.90;;;;;;5109730;27;20043;-74
2022/05/14 08:48:07;;;;;;;8.57;1.70;;;16.30;99.90;;;;;;5115060;27;20142;-73
2022/05/14 08:50:37;;;;;;;3.97;2.58;;;16.40;99.90;;;;;;5135864;27;20051;-74
2022/05/14 08:53:07;;;;;;;4.35;1.50;;;16.40;99.90;;;;;;5134704;27;20038;-74
2022/05/14 08:56:15;;;;;;;3.60;1.52;;;16.50;99.90;;;;;;5133790;27;20128;-74
2022/05/14 08:59:01;;;;;;;5.47;2.20;;;16.50;99.90;;;;;;5121230;27;20051;-74
2022/05/14 09:01:31;;;;;;;4.00;2.25;;;16.50;99.90;;;;;;5109445;27;20039;-74
2022/05/14 09:03:57;;;;;;;7.70;2.13;;;16.60;99.90;;;;;;5111443;27;20540;-74
2022/05/14 09:06:23;;;;;;;4.25;2.15;;;16.60;99.90;;;;;;5132756;27;20041;-74
2022/05/14 09:08:49;;;;;;;4.88;1.88;;;16.60;99.90;;;;;;5113911;27;20040;-74
2022/05/14 09:11:26;;;;;;;3.42;1.60;;;16.60;99.90;;;;;;5132968;27;20035;-73
2022/05/14 09:13:59;;;;;;;3.92;1.95;;;16.70;99.90;;;;;;5116995;27;20141;-74
2022/05/14 09:16:31;;;;;;;3.53;1.63;;;16.70;99.90;;;;;;5135017;27;20044;-73
2022/05/14 09:18:58;;;;;;;3.75;2.28;;;16.80;99.90;;;;;;5135956;27;20039;-73
2022/05/14 09:21:35;;;;;;;4.00;2.13;;;16.80;99.90;;;;;;5126314;27;20622;-74
2022/05/14 09:24:31;;;;;;;2.28;1.83;;;16.80;99.90;;;;;;5136157;27;20046;-74
2022/05/14 09:27:12;;;;;;;4.75;2.17;;;16.90;99.90;;;;;;5134889;27;20525;-74
2022/05/14 09:29:45;;;;;;;2.80;1.95;;;16.90;99.90;;;;;;5115868;27;20047;-74
2022/05/14 09:32:32;;;;;;;5.97;2.05;;;17.00;99.90;;;;;;5117410;27;20630;-74
2022/05/14 09:35:08;;;;;;;3.70;1.73;;;17.00;99.90;;;;;;5134884;27;20097;-74
2022/05/14 09:37:33;;;;;;;4.97;2.03;;;17.10;99.90;;;;;;5132411;27;20677;-74
2022/05/14 09:40:02;;;;;;;3.60;2.22;;;17.00;99.90;;;;;;5117092;27;20036;-74
2022/05/14 09:42:47;;;;;;;3.15;1.83;;;17.10;99.90;;;;;;5134613;27;20039;-74
2022/05/14 09:45:32;;;;;;;2.58;1.38;;;16.90;99.90;;;;;;5135102;27;20042;-74
2022/05/14 09:48:16;;;;;;;4.90;1.60;;;17.10;99.90;;;;;;5116263;27;20040;-74
2022/05/14 09:50:45;;;;;;;2.80;1.80;;;17.20;99.90;;;;;;5133058;27;20822;-74
2022/05/14 09:53:11;;;;;;;3.97;1.67;;;17.30;99.90;;;;;;5117495;27;20074;-74
2022/05/14 09:55:53;;;;;;;3.92;1.73;;;17.30;99.90;;;;;;5134037;27;20053;-74
2022/05/14 09:58:46;;;;;;;4.15;1.33;;;17.40;99.80;;;;;;5134946;27;20183;-74
2022/05/14 10:01:41;;;;;;;4.60;2.28;;;17.40;99.80;;;;;;5106237;27;20039;-74
2022/05/14 10:04:35;;;;;;;2.80;1.80;;;17.40;99.70;;;;;;5101283;27;21531;-73
2022/05/14 10:07:24;;;;;;;5.68;1.90;;;17.50;99.70;;;;;;5104369;27;20051;-74
2022/05/14 10:09:50;;;;;;;3.63;1.55;;;17.40;99.50;;;;;;5116794;27;20039;-74
2022/05/14 10:12:34;;;;;;;2.42;1.42;;;17.40;99.50;;;;;;5109114;27;20031;-74
2022/05/14 10:15:06;;;;;;;5.60;1.30;;;17.50;99.50;;;;;;5113925;27;20039;-74
2022/05/14 10:17:49;;;;;;;3.47;1.70;;;17.50;99.50;;;;;;5133956;27;20070;-74
2022/05/14 10:20:35;;;;;;;3.88;2.05;;;17.60;99.40;;;;;;5111749;27;20077;-75
2022/05/14 10:29:31;;;;;;;3.97;1.35;;;17.70;99.20;;;;;;5138731;27;20059;-81
2022/05/14 10:32:26;;;;;;;7.93;1.75;;;18.00;99.30;;;;;;5107823;27;20051;-80
2022/05/14 10:34:58;;;;;;;2.92;1.42;;;17.80;99.20;;;;;;5110642;27;20077;-76
2022/05/14 10:37:28;;;;;;;2.47;1.52;;;17.90;99.20;;;;;;5127767;27;20040;-76
2022/05/14 10:40:16;;;;;;;11.98;1.98;;;17.80;99.20;;;;;;5131857;27;20607;-77
2022/05/14 10:43:02;;;;;;;3.47;1.63;;;17.90;99.00;;;;;;5114545;27;20063;-77
2022/05/14 10:45:44;;;;;;;2.75;1.38;;;17.80;98.90;;;;;;5096489;27;20067;-78
2022/05/14 10:48:35;;;;;;;4.75;2.58;;;17.90;98.90;;;;;;5114114;27;20076;-77
2022/05/14 10:51:08;;;;;;;4.22;1.15;;;17.90;99.00;;;;;;5107791;27;20044;-78
2022/05/14 10:53:38;;;;;;;7.95;2.38;;;17.90;99.00;;;;;;5134912;27;20084;-78
2022/05/14 10:56:33;;;;;;;5.70;2.45;;;18.00;99.00;;;;;;5112407;27;20141;-79
2022/05/14 10:59:10;;;;;;;2.20;1.40;;;18.00;98.80;;;;;;5115044;27;20043;-79
2022/05/14 11:01:46;;;;;;;2.97;1.23;;;18.00;98.60;;;;;;5125596;27;20047;-78
2022/05/14 11:04:21;;;;;;;2.25;1.25;;;17.20;98.30;;;;;;5107581;27;20040;-74
2022/05/14 11:06:59;;;;;;;6.68;1.40;;;18.10;98.60;;;;;;5110486;27;20074;-75
2022/05/14 11:09:34;;;;;;;2.10;1.27;;;18.10;98.60;;;;;;5129055;27;20527;-74
2022/05/14 11:12:12;;;;;;;3.30;1.77;;;18.20;98.50;;;;;;5131961;27;20027;-75
2022/05/14 11:14:51;;;;;;;14.25;5.13;;;18.10;98.30;;;;;;5126485;27;20103;-75
2022/05/14 11:17:24;;;;;;;19.50;5.57;;;17.80;98.10;;;;;;5127946;27;20035;-75
2022/05/14 11:20:11;;;;;;;14.65;5.05;;;18.30;98.10;;;;;;5136018;27;20083;-74
2022/05/14 11:22:41;;;;;;;1.50;1.23;;;18.00;97.90;;;;;;5111696;27;20066;-74
2022/05/14 11:25:25;;;;;;;3.70;2.03;;;18.40;98.10;;;;;;5129740;27;20051;-75
2022/05/14 11:28:13;;;;;;;6.35;1.85;;;18.40;97.90;;;;;;5113661;27;20114;-75
2022/05/14 11:30:45;;;;;;;4.60;2.97;;;18.50;97.80;;;;;;5138630;27;20036;-75
2022/05/14 11:33:27;;;;;;;2.53;1.20;;;18.50;97.80;;;;;;5131430;27;20053;-74
2022/05/14 11:35:58;;;;;;;3.25;1.42;;;18.60;97.70;;;;;;5108337;27;20096;-75
2022/05/14 11:38:27;;;;;;;3.67;1.73;;;18.60;97.40;;;;;;5128414;27;20043;-75
2022/05/14 11:41:13;;;;;;;2.75;0.93;;;18.60;97.40;;;;;;5136047;27;20075;-76
2022/05/14 11:43:51;;;;;;;3.85;1.77;;;18.60;97.30;;;;;;5101106;27;20056;-75
2022/05/14 11:46:36;;;;;;;1.77;1.20;;;18.60;97.20;;;;;;5106228;27;20040;-75
2022/05/14 11:49:24;;;;;;;2.70;2.05;;;18.60;97.10;;;;;;5106230;27;20066;-75
2022/05/14 11:52:09;;;;;;;1.50;1.20;;;18.60;97.10;;;;;;5089484;27;20036;-75
2022/05/14 11:55:27;;;;;;;4.60;1.60;;;18.70;97.10;;;;;;5082114;27;20135;-75
2022/05/14 11:58:11;;;;;;;3.13;1.35;;;18.70;96.90;;;;;;5094396;27;20055;-75
2022/05/14 12:00:39;;;;;;;3.25;1.40;;;18.50;96.80;;;;;;5091830;27;20066;-75
2022/05/14 12:03:08;;;;;;;1.35;1.00;;;18.70;96.80;;;;;;5105524;27;20826;-75
2022/05/14 12:05:54;;;;;;;3.58;1.25;;;18.80;96.70;;;;;;5105430;27;20238;-76
2022/05/14 12:08:33;;;;;;;5.80;1.98;;;18.80;96.50;;;;;;5101788;27;20044;-76
2022/05/14 12:11:47;;;;;;;2.80;0.90;;;18.80;96.50;;;;;;5078073;27;20069;-75
2022/05/14 12:14:18;;;;;;;3.47;1.45;;;18.90;96.50;;;;;;5057432;27;20048;-76
2022/05/14 12:17:07;;;;;;;3.60;1.93;;;18.90;96.50;;;;;;5101742;27;20517;-78
2022/05/14 12:19:40;;;;;;;3.70;1.20;;;18.90;96.30;;;;;;5085969;27;20551;-76
2022/05/14 12:22:29;;;;;;;3.47;1.52;;;19.00;96.10;;;;;;5106804;27;20043;-76
2022/05/14 12:25:07;;;;;;;3.60;1.25;;;19.00;95.70;;;;;;5105720;27;20082;-77
2022/05/14 12:27:40;;;;;;;2.92;1.42;;;19.10;95.70;;;;;;5088066;27;20044;-77
2022/05/14 12:30:13;;;;;;;4.43;1.65;;;19.10;95.70;;;;;;5087736;27;20046;-77
2022/05/14 12:35:37;;;;;;;2.75;1.27;;;19.20;95.60;;;;;;5106307;27;20565;-76
2022/05/14 12:38:14;;;;;;;6.47;1.40;;;19.30;95.50;;;;;;5104244;27;20078;-76
2022/05/14 12:40:51;;;;;;;2.25;1.52;;;19.40;95.40;;;;;;5102546;27;20056;-77
2022/05/14 12:43:26;;;;;;;4.45;1.20;;;19.40;95.30;;;;;;5101450;27;20457;-82
2022/05/14 12:46:26;;;;;;;2.67;1.23;;;19.50;95.10;;;;;;5111919;27;20065;-80
2022/05/14 12:48:55;;;;;;;1.70;0.98;;;19.60;95.00;;;;;;5043379;28;20053;-76
2022/05/14 12:54:41;;;;;;;6.95;1.92;;;20.00;95.20;;;;;;5126061;27;20049;-77
2022/05/14 12:57:18;;;;;;;4.40;1.60;;;19.80;94.80;;;;;;5124078;27;20612;-77
2022/05/14 13:00:19;;;;;;;4.70;2.20;;;19.90;94.70;;;;;;5125898;27;20652;-77
2022/05/14 13:03:11;;;;;;;3.22;1.27;;;20.00;94.60;;;;;;5134572;27;20038;-77
2022/05/14 13:05:59;;;;;;;3.85;1.33;;;20.00;94.40;;;;;;5133391;27;20039;-77
2022/05/14 13:08:47;;;;;;;2.80;1.38;;;20.00;94.30;;;;;;5129829;27;20042;-77
2022/05/14 13:11:21;;;;;;;2.45;1.40;;;19.90;94.10;;;;;;5116525;27;20050;-77
2022/05/14 13:14:11;;;;;;;5.38;1.70;;;20.20;94.00;;;;;;5115260;27;20039;-76
2022/05/14 13:16:40;;;;;;;2.80;1.20;;;20.30;93.80;;;;;;5125052;27;20053;-77
2022/05/14 13:19:36;;;;;;;3.60;1.90;;;20.40;93.70;;;;;;5136250;27;20073;-77
2022/05/14 13:22:07;;;;;;;2.10;1.23;;;20.50;93.10;;;;;;5125996;27;20628;-76
2022/05/14 13:25:09;;;;;;;2.47;1.30;;;20.60;93.00;;;;;;5113108;27;20587;-76
2022/05/14 13:27:44;;;;;;;2.30;1.02;;;20.60;92.90;;;;;;5115851;27;20058;-76
2022/05/14 13:30:41;;;;;;;;;;;;;;;;;;;;;
2022/05/14 13:33:27;;;;;;;4.93;1.17;;;20.70;92.60;;;;;;5132256;27;45639;-77
2022/05/14 13:39:03;;;;;;;2.67;1.23;;;20.80;92.50;;;;;;5132970;27;20513;-77
2022/05/14 13:41:36;;;;;;;2.63;1.40;;;20.90;92.40;;;;;;5105406;27;20521;-77
2022/05/14 13:44:21;;;;;;;2.53;1.27;;;20.90;92.40;;;;;;5112088;27;20050;-77
2022/05/14 13:46:57;;;;;;;6.18;1.70;;;20.90;92.20;;;;;;5114225;27;20038;-76